sensor_id;sensor_type;location;lat;lon;timestamp;temperature;humidity
59505;DHT22;45321;53.200;5.814;2023-05-10T00:01:25;13.00;90.80
59505;DHT22;45321;53.200;5.814;2023-05-10T00:03:51;13.00;90.70
59505;DHT22;45321;53.200;5.814;2023-05-10T00:06:17;13.00;90.70
59505;DHT22;45321;53.200;5.814;2023-05-10T00:08:44;13.00;90.80
59505;DHT22;45321;53.200;5.814;2023-05-10T00:11:09;13.00;90.70
59505;DHT22;45321;53.200;5.814;2023-05-10T00:13:35;13.00;90.80
59505;DHT22;45321;53.200;5.814;2023-05-10T00:16:01;13.00;90.70
59505;DHT22;45321;53.200;5.814;2023-05-10T00:18:27;13.00;90.60
59505;DHT22;45321;53.200;5.814;2023-05-10T00:20:53;13.00;90.70
59505;DHT22;45321;53.200;5.814;2023-05-10T00:23:18;12.90;90.90
59505;DHT22;45321;53.200;5.814;2023-05-10T00:25:44;13.00;90.80
59505;DHT22;45321;53.200;5.814;2023-05-10T00:28:10;13.00;90.70
59505;DHT22;45321;53.200;5.814;2023-05-10T00:30:35;12.90;90.90
59505;DHT22;45321;53.200;5.814;2023-05-10T00:33:01;13.00;91.00
59505;DHT22;45321;53.200;5.814;2023-05-10T00:35:27;13.00;90.90
59505;DHT22;45321;53.200;5.814;2023-05-10T00:37:52;12.90;90.90
59505;DHT22;45321;53.200;5.814;2023-05-10T00:40:18;12.90;90.90
59505;DHT22;45321;53.200;5.814;2023-05-10T00:42:44;12.90;91.00
59505;DHT22;45321;53.200;5.814;2023-05-10T00:45:10;13.00;91.10
59505;DHT22;45321;53.200;5.814;2023-05-10T00:47:36;13.00;90.90
59505;DHT22;45321;53.200;5.814;2023-05-10T00:50:02;13.00;90.80
59505;DHT22;45321;53.200;5.814;2023-05-10T00:52:29;13.00;90.80
59505;DHT22;45321;53.200;5.814;2023-05-10T00:54:56;12.90;90.80
59505;DHT22;45321;53.200;5.814;2023-05-10T00:57:23;12.90;90.70
59505;DHT22;45321;53.200;5.814;2023-05-10T00:59:49;12.90;90.90
59505;DHT22;45321;53.200;5.814;2023-05-10T01:02:15;12.90;90.80
59505;DHT22;45321;53.200;5.814;2023-05-10T01:04:41;12.90;91.00
59505;DHT22;45321;53.200;5.814;2023-05-10T01:07:08;12.90;90.80
59505;DHT22;45321;53.200;5.814;2023-05-10T01:09:34;13.00;90.80
59505;DHT22;45321;53.200;5.814;2023-05-10T01:12:00;13.00;90.80
59505;DHT22;45321;53.200;5.814;2023-05-10T01:14:27;12.90;90.80
59505;DHT22;45321;53.200;5.814;2023-05-10T01:16:53;12.90;90.80
59505;DHT22;45321;53.200;5.814;2023-05-10T01:19:22;13.00;90.80
59505;DHT22;45321;53.200;5.814;2023-05-10T01:25:02;13.00;90.70
59505;DHT22;45321;53.200;5.814;2023-05-10T01:32:45;13.10;90.60
59505;DHT22;45321;53.200;5.814;2023-05-10T01:35:40;13.00;90.50
59505;DHT22;45321;53.200;5.814;2023-05-10T01:38:17;13.00;90.50
59505;DHT22;45321;53.200;5.814;2023-05-10T01:43:23;13.00;90.60
59505;DHT22;45321;53.200;5.814;2023-05-10T01:45:59;12.90;90.50
59505;DHT22;45321;53.200;5.814;2023-05-10T01:48:28;13.00;90.60
59505;DHT22;45321;53.200;5.814;2023-05-10T01:50:54;13.00;90.80
59505;DHT22;45321;53.200;5.814;2023-05-10T01:53:22;13.00;90.70
59505;DHT22;45321;53.200;5.814;2023-05-10T01:55:52;13.00;90.70
59505;DHT22;45321;53.200;5.814;2023-05-10T01:58:31;13.00;90.80
59505;DHT22;45321;53.200;5.814;2023-05-10T02:01:00;13.10;90.70
59505;DHT22;45321;53.200;5.814;2023-05-10T02:03:28;13.00;90.60
59505;DHT22;45321;53.200;5.814;2023-05-10T02:05:56;13.00;90.70
59505;DHT22;45321;53.200;5.814;2023-05-10T02:08:23;13.00;90.70
59505;DHT22;45321;53.200;5.814;2023-05-10T02:10:51;13.10;90.70
59505;DHT22;45321;53.200;5.814;2023-05-10T02:13:18;13.10;90.50
59505;DHT22;45321;53.200;5.814;2023-05-10T02:15:47;13.10;90.50
59505;DHT22;45321;53.200;5.814;2023-05-10T02:18:13;13.00;90.60
59505;DHT22;45321;53.200;5.814;2023-05-10T02:20:42;13.00;90.70
59505;DHT22;45321;53.200;5.814;2023-05-10T02:23:09;13.00;90.50
59505;DHT22;45321;53.200;5.814;2023-05-10T02:25:35;13.10;90.50
59505;DHT22;45321;53.200;5.814;2023-05-10T02:28:05;13.10;90.60
59505;DHT22;45321;53.200;5.814;2023-05-10T02:30:33;13.10;90.60
59505;DHT22;45321;53.200;5.814;2023-05-10T02:32:59;13.10;90.40
59505;DHT22;45321;53.200;5.814;2023-05-10T02:35:27;13.10;90.50
59505;DHT22;45321;53.200;5.814;2023-05-10T02:37:54;13.10;90.70
59505;DHT22;45321;53.200;5.814;2023-05-10T02:40:21;13.10;90.50
59505;DHT22;45321;53.200;5.814;2023-05-10T02:42:50;13.10;90.50
59505;DHT22;45321;53.200;5.814;2023-05-10T02:45:22;13.10;90.70
59505;DHT22;45321;53.200;5.814;2023-05-10T02:47:48;13.10;90.80
59505;DHT22;45321;53.200;5.814;2023-05-10T02:50:14;13.10;90.60
59505;DHT22;45321;53.200;5.814;2023-05-10T02:52:44;13.20;90.70
59505;DHT22;45321;53.200;5.814;2023-05-10T02:55:13;13.10;90.70
59505;DHT22;45321;53.200;5.814;2023-05-10T02:57:51;13.20;90.60
59505;DHT22;45321;53.200;5.814;2023-05-10T03:00:17;13.10;90.60
59505;DHT22;45321;53.200;5.814;2023-05-10T03:02:43;13.10;90.50
59505;DHT22;45321;53.200;5.814;2023-05-10T03:05:09;13.10;90.40
59505;DHT22;45321;53.200;5.814;2023-05-10T03:07:34;13.10;90.50
59505;DHT22;45321;53.200;5.814;2023-05-10T03:10:01;13.10;90.60
59505;DHT22;45321;53.200;5.814;2023-05-10T03:18:30;13.10;90.40
59505;DHT22;45321;53.200;5.814;2023-05-10T03:20:59;13.10;90.40
59505;DHT22;45321;53.200;5.814;2023-05-10T03:23:35;13.10;90.40
59505;DHT22;45321;53.200;5.814;2023-05-10T03:26:01;13.00;90.50
59505;DHT22;45321;53.200;5.814;2023-05-10T03:28:28;13.00;90.40
59505;DHT22;45321;53.200;5.814;2023-05-10T03:30:56;13.00;90.50
59505;DHT22;45321;53.200;5.814;2023-05-10T03:33:22;13.00;90.80
59505;DHT22;45321;53.200;5.814;2023-05-10T03:35:48;13.10;90.50
59505;DHT22;45321;53.200;5.814;2023-05-10T03:38:13;13.10;90.50
59505;DHT22;45321;53.200;5.814;2023-05-10T03:40:39;13.10;90.50
59505;DHT22;45321;53.200;5.814;2023-05-10T03:43:05;13.00;90.70
59505;DHT22;45321;53.200;5.814;2023-05-10T03:45:31;13.00;90.60
59505;DHT22;45321;53.200;5.814;2023-05-10T03:47:57;13.00;90.70
59505;DHT22;45321;53.200;5.814;2023-05-10T03:50:23;13.00;90.70
59505;DHT22;45321;53.200;5.814;2023-05-10T03:52:49;13.10;90.60
59505;DHT22;45321;53.200;5.814;2023-05-10T03:55:15;13.00;90.70
59505;DHT22;45321;53.200;5.814;2023-05-10T03:57:41;13.10;91.00
59505;DHT22;45321;53.200;5.814;2023-05-10T04:00:07;13.10;91.00
59505;DHT22;45321;53.200;5.814;2023-05-10T04:02:33;13.10;90.70
59505;DHT22;45321;53.200;5.814;2023-05-10T04:04:59;13.10;90.70
59505;DHT22;45321;53.200;5.814;2023-05-10T04:07:25;13.10;90.60
59505;DHT22;45321;53.200;5.814;2023-05-10T04:09:50;13.10;90.90
59505;DHT22;45321;53.200;5.814;2023-05-10T04:12:16;13.10;90.70
59505;DHT22;45321;53.200;5.814;2023-05-10T04:14:42;13.10;90.80
59505;DHT22;45321;53.200;5.814;2023-05-10T04:17:07;13.10;90.90
59505;DHT22;45321;53.200;5.814;2023-05-10T04:19:33;13.10;90.80
59505;DHT22;45321;53.200;5.814;2023-05-10T04:21:59;13.10;90.70
59505;DHT22;45321;53.200;5.814;2023-05-10T04:24:25;13.10;90.70
59505;DHT22;45321;53.200;5.814;2023-05-10T04:26:51;13.10;90.80
59505;DHT22;45321;53.200;5.814;2023-05-10T04:29:17;13.20;90.70
59505;DHT22;45321;53.200;5.814;2023-05-10T04:31:42;13.20;90.80
59505;DHT22;45321;53.200;5.814;2023-05-10T04:34:08;13.10;90.60
59505;DHT22;45321;53.200;5.814;2023-05-10T04:36:34;13.10;90.60
59505;DHT22;45321;53.200;5.814;2023-05-10T04:39:02;13.10;90.50
59505;DHT22;45321;53.200;5.814;2023-05-10T04:41:30;13.10;90.50
59505;DHT22;45321;53.200;5.814;2023-05-10T04:43:56;13.10;90.70
59505;DHT22;45321;53.200;5.814;2023-05-10T04:46:22;13.10;90.80
59505;DHT22;45321;53.200;5.814;2023-05-10T04:48:48;13.10;90.60
59505;DHT22;45321;53.200;5.814;2023-05-10T04:51:13;13.10;90.60
59505;DHT22;45321;53.200;5.814;2023-05-10T04:53:39;13.10;90.90
59505;DHT22;45321;53.200;5.814;2023-05-10T04:56:05;13.10;90.80
59505;DHT22;45321;53.200;5.814;2023-05-10T04:58:31;13.10;91.00
59505;DHT22;45321;53.200;5.814;2023-05-10T05:00:57;13.10;91.00
59505;DHT22;45321;53.200;5.814;2023-05-10T05:03:22;13.10;91.00
59505;DHT22;45321;53.200;5.814;2023-05-10T05:05:48;13.10;90.70
59505;DHT22;45321;53.200;5.814;2023-05-10T05:08:14;13.10;90.80
59505;DHT22;45321;53.200;5.814;2023-05-10T05:10:40;13.10;90.70
59505;DHT22;45321;53.200;5.814;2023-05-10T05:13:08;13.10;90.80
59505;DHT22;45321;53.200;5.814;2023-05-10T05:15:34;13.10;90.90
59505;DHT22;45321;53.200;5.814;2023-05-10T05:18:00;13.10;90.70
59505;DHT22;45321;53.200;5.814;2023-05-10T05:20:25;13.10;90.90
59505;DHT22;45321;53.200;5.814;2023-05-10T05:22:51;13.10;90.80
59505;DHT22;45321;53.200;5.814;2023-05-10T05:25:17;13.10;91.00
59505;DHT22;45321;53.200;5.814;2023-05-10T05:27:42;13.20;90.80
59505;DHT22;45321;53.200;5.814;2023-05-10T05:30:11;13.20;90.70
59505;DHT22;45321;53.200;5.814;2023-05-10T05:32:37;13.20;90.60
59505;DHT22;45321;53.200;5.814;2023-05-10T05:35:02;13.10;90.60
59505;DHT22;45321;53.200;5.814;2023-05-10T05:37:28;13.20;90.90
59505;DHT22;45321;53.200;5.814;2023-05-10T05:39:54;13.20;90.80
59505;DHT22;45321;53.200;5.814;2023-05-10T05:42:20;13.20;90.80
59505;DHT22;45321;53.200;5.814;2023-05-10T05:44:46;13.20;90.60
59505;DHT22;45321;53.200;5.814;2023-05-10T05:47:11;13.20;90.80
59505;DHT22;45321;53.200;5.814;2023-05-10T05:49:42;13.30;91.20
59505;DHT22;45321;53.200;5.814;2023-05-10T05:52:07;13.30;91.20
59505;DHT22;45321;53.200;5.814;2023-05-10T05:54:33;13.30;91.00
59505;DHT22;45321;53.200;5.814;2023-05-10T05:57:00;13.30;90.80
59505;DHT22;45321;53.200;5.814;2023-05-10T05:59:26;13.30;90.70
59505;DHT22;45321;53.200;5.814;2023-05-10T06:01:52;13.30;90.60
59505;DHT22;45321;53.200;5.814;2023-05-10T06:04:20;13.30;90.70
59505;DHT22;45321;53.200;5.814;2023-05-10T06:06:46;13.30;90.70
59505;DHT22;45321;53.200;5.814;2023-05-10T06:09:12;13.30;90.90
59505;DHT22;45321;53.200;5.814;2023-05-10T06:11:38;13.30;90.80
59505;DHT22;45321;53.200;5.814;2023-05-10T06:14:04;13.30;90.70
59505;DHT22;45321;53.200;5.814;2023-05-10T06:16:32;13.40;90.60
59505;DHT22;45321;53.200;5.814;2023-05-10T06:18:58;13.40;90.70
59505;DHT22;45321;53.200;5.814;2023-05-10T06:21:24;13.40;90.70
59505;DHT22;45321;53.200;5.814;2023-05-10T06:23:50;13.40;90.60
59505;DHT22;45321;53.200;5.814;2023-05-10T06:26:15;13.40;90.70
59505;DHT22;45321;53.200;5.814;2023-05-10T06:28:41;13.50;90.80
59505;DHT22;45321;53.200;5.814;2023-05-10T06:31:07;13.50;90.80
59505;DHT22;45321;53.200;5.814;2023-05-10T06:33:33;13.50;90.50
59505;DHT22;45321;53.200;5.814;2023-05-10T06:35:59;13.40;90.40
59505;DHT22;45321;53.200;5.814;2023-05-10T06:38:25;13.40;90.30
59505;DHT22;45321;53.200;5.814;2023-05-10T06:40:51;13.40;90.40
59505;DHT22;45321;53.200;5.814;2023-05-10T06:43:17;13.40;90.40
59505;DHT22;45321;53.200;5.814;2023-05-10T06:45:43;13.50;90.70
59505;DHT22;45321;53.200;5.814;2023-05-10T06:48:08;13.50;90.60
59505;DHT22;45321;53.200;5.814;2023-05-10T06:50:34;13.50;90.50
59505;DHT22;45321;53.200;5.814;2023-05-10T06:53:00;13.60;90.70
59505;DHT22;45321;53.200;5.814;2023-05-10T06:55:27;13.60;90.50
59505;DHT22;45321;53.200;5.814;2023-05-10T06:57:53;13.60;90.30
59505;DHT22;45321;53.200;5.814;2023-05-10T07:00:19;13.60;90.30
59505;DHT22;45321;53.200;5.814;2023-05-10T07:02:46;13.60;90.10
59505;DHT22;45321;53.200;5.814;2023-05-10T07:05:12;13.60;90.20
59505;DHT22;45321;53.200;5.814;2023-05-10T07:07:38;13.60;90.10
59505;DHT22;45321;53.200;5.814;2023-05-10T07:10:04;13.60;90.30
59505;DHT22;45321;53.200;5.814;2023-05-10T07:12:30;13.60;90.30
59505;DHT22;45321;53.200;5.814;2023-05-10T07:14:56;13.60;90.30
59505;DHT22;45321;53.200;5.814;2023-05-10T07:17:21;13.60;90.40
59505;DHT22;45321;53.200;5.814;2023-05-10T07:19:47;13.70;90.30
59505;DHT22;45321;53.200;5.814;2023-05-10T07:22:14;13.60;90.10
59505;DHT22;45321;53.200;5.814;2023-05-10T07:24:40;13.60;89.90
59505;DHT22;45321;53.200;5.814;2023-05-10T07:27:06;13.60;89.90
59505;DHT22;45321;53.200;5.814;2023-05-10T07:29:32;13.60;89.90
59505;DHT22;45321;53.200;5.814;2023-05-10T07:31:58;13.60;90.00
59505;DHT22;45321;53.200;5.814;2023-05-10T07:34:23;13.60;90.20
59505;DHT22;45321;53.200;5.814;2023-05-10T07:36:49;13.60;90.30
59505;DHT22;45321;53.200;5.814;2023-05-10T07:39:15;13.70;90.30
59505;DHT22;45321;53.200;5.814;2023-05-10T07:41:41;13.80;90.30
59505;DHT22;45321;53.200;5.814;2023-05-10T07:44:06;13.80;90.20
59505;DHT22;45321;53.200;5.814;2023-05-10T07:46:32;13.80;90.00
59505;DHT22;45321;53.200;5.814;2023-05-10T07:48:58;13.80;90.10
59505;DHT22;45321;53.200;5.814;2023-05-10T07:51:24;13.80;90.40
59505;DHT22;45321;53.200;5.814;2023-05-10T07:53:50;13.90;90.60
59505;DHT22;45321;53.200;5.814;2023-05-10T07:56:25;14.00;90.40
59505;DHT22;45321;53.200;5.814;2023-05-10T07:58:53;14.00;90.30
59505;DHT22;45321;53.200;5.814;2023-05-10T08:01:19;14.10;90.20
59505;DHT22;45321;53.200;5.814;2023-05-10T08:03:45;14.20;90.20
59505;DHT22;45321;53.200;5.814;2023-05-10T08:06:11;14.20;90.10
59505;DHT22;45321;53.200;5.814;2023-05-10T08:08:37;14.30;90.00
59505;DHT22;45321;53.200;5.814;2023-05-10T08:11:03;14.30;89.80
59505;DHT22;45321;53.200;5.814;2023-05-10T08:13:30;14.30;89.50
59505;DHT22;45321;53.200;5.814;2023-05-10T08:15:56;14.30;89.50
59505;DHT22;45321;53.200;5.814;2023-05-10T08:18:22;14.30;89.60
59505;DHT22;45321;53.200;5.814;2023-05-10T08:20:48;14.30;89.60
59505;DHT22;45321;53.200;5.814;2023-05-10T08:23:14;14.30;89.40
59505;DHT22;45321;53.200;5.814;2023-05-10T08:25:40;14.30;89.40
59505;DHT22;45321;53.200;5.814;2023-05-10T08:28:06;14.30;89.30
59505;DHT22;45321;53.200;5.814;2023-05-10T08:30:32;14.30;89.40
59505;DHT22;45321;53.200;5.814;2023-05-10T08:32:57;14.40;89.40
59505;DHT22;45321;53.200;5.814;2023-05-10T08:35:23;14.40;89.40
59505;DHT22;45321;53.200;5.814;2023-05-10T08:37:50;14.50;89.30
59505;DHT22;45321;53.200;5.814;2023-05-10T08:40:19;14.40;88.90
59505;DHT22;45321;53.200;5.814;2023-05-10T08:42:53;14.50;88.90
59505;DHT22;45321;53.200;5.814;2023-05-10T08:45:23;14.50;88.80
59505;DHT22;45321;53.200;5.814;2023-05-10T08:47:49;14.40;88.70
59505;DHT22;45321;53.200;5.814;2023-05-10T08:50:17;14.40;88.90
59505;DHT22;45321;53.200;5.814;2023-05-10T08:52:45;14.50;89.00
59505;DHT22;45321;53.200;5.814;2023-05-10T08:55:13;14.60;88.80
59505;DHT22;45321;53.200;5.814;2023-05-10T08:57:39;14.70;88.80
59505;DHT22;45321;53.200;5.814;2023-05-10T09:00:05;14.70;88.60
59505;DHT22;45321;53.200;5.814;2023-05-10T09:02:32;14.80;88.40
59505;DHT22;45321;53.200;5.814;2023-05-10T09:04:58;14.80;88.20
59505;DHT22;45321;53.200;5.814;2023-05-10T09:07:23;14.80;88.30
59505;DHT22;45321;53.200;5.814;2023-05-10T09:09:50;14.80;88.40
59505;DHT22;45321;53.200;5.814;2023-05-10T09:12:16;14.90;88.00
59505;DHT22;45321;53.200;5.814;2023-05-10T09:14:44;14.90;87.80
59505;DHT22;45321;53.200;5.814;2023-05-10T09:17:11;14.90;87.90
59505;DHT22;45321;53.200;5.814;2023-05-10T09:19:37;14.90;87.70
59505;DHT22;45321;53.200;5.814;2023-05-10T09:22:03;14.90;87.80
59505;DHT22;45321;53.200;5.814;2023-05-10T09:24:30;14.90;87.60
59505;DHT22;45321;53.200;5.814;2023-05-10T09:26:57;14.90;87.50
59505;DHT22;45321;53.200;5.814;2023-05-10T09:29:23;14.80;87.40
59505;DHT22;45321;53.200;5.814;2023-05-10T09:31:50;14.80;87.60
59505;DHT22;45321;53.200;5.814;2023-05-10T09:34:35;14.80;87.30
59505;DHT22;45321;53.200;5.814;2023-05-10T09:37:05;14.80;87.40
59505;DHT22;45321;53.200;5.814;2023-05-10T09:39:37;14.80;87.20
59505;DHT22;45321;53.200;5.814;2023-05-10T09:42:06;14.80;87.30
59505;DHT22;45321;53.200;5.814;2023-05-10T09:44:33;14.80;87.30
59505;DHT22;45321;53.200;5.814;2023-05-10T09:47:00;14.90;87.30
59505;DHT22;45321;53.200;5.814;2023-05-10T09:49:25;14.90;87.10
59505;DHT22;45321;53.200;5.814;2023-05-10T09:52:02;14.90;87.40
59505;DHT22;45321;53.200;5.814;2023-05-10T09:54:28;15.00;87.10
59505;DHT22;45321;53.200;5.814;2023-05-10T09:56:54;15.00;87.10
59505;DHT22;45321;53.200;5.814;2023-05-10T09:59:19;15.10;86.90
59505;DHT22;45321;53.200;5.814;2023-05-10T10:01:52;15.00;86.50
59505;DHT22;45321;53.200;5.814;2023-05-10T10:04:20;15.00;86.50
59505;DHT22;45321;53.200;5.814;2023-05-10T10:06:47;15.00;86.50
59505;DHT22;45321;53.200;5.814;2023-05-10T10:09:23;15.00;86.60
59505;DHT22;45321;53.200;5.814;2023-05-10T10:11:50;15.00;86.70
59505;DHT22;45321;53.200;5.814;2023-05-10T10:14:21;15.10;86.60
59505;DHT22;45321;53.200;5.814;2023-05-10T10:16:49;15.00;86.40
59505;DHT22;45321;53.200;5.814;2023-05-10T10:19:15;15.00;86.30
59505;DHT22;45321;53.200;5.814;2023-05-10T10:21:41;15.00;86.90
59505;DHT22;45321;53.200;5.814;2023-05-10T10:24:07;15.20;87.10
59505;DHT22;45321;53.200;5.814;2023-05-10T10:26:36;15.20;86.60
59505;DHT22;45321;53.200;5.814;2023-05-10T10:31:39;15.30;86.30
59505;DHT22;45321;53.200;5.814;2023-05-10T10:34:10;15.30;86.10
59505;DHT22;45321;53.200;5.814;2023-05-10T10:36:50;15.40;86.10
59505;DHT22;45321;53.200;5.814;2023-05-10T10:39:16;15.50;86.20
59505;DHT22;45321;53.200;5.814;2023-05-10T10:41:52;15.60;86.10
59505;DHT22;45321;53.200;5.814;2023-05-10T10:50:13;15.80;85.20
59505;DHT22;45321;53.200;5.814;2023-05-10T10:52:43;15.80;84.80
59505;DHT22;45321;53.200;5.814;2023-05-10T10:55:13;15.90;84.70
59505;DHT22;45321;53.200;5.814;2023-05-10T10:57:52;16.00;84.30
59505;DHT22;45321;53.200;5.814;2023-05-10T11:05:51;16.10;83.60
59505;DHT22;45321;53.200;5.814;2023-05-10T11:08:31;16.10;83.50
59505;DHT22;45321;53.200;5.814;2023-05-10T11:13:45;16.10;83.00
59505;DHT22;45321;53.200;5.814;2023-05-10T11:16:21;16.00;83.00
59505;DHT22;45321;53.200;5.814;2023-05-10T11:19:07;16.10;83.00
59505;DHT22;45321;53.200;5.814;2023-05-10T11:21:34;16.20;82.90
59505;DHT22;45321;53.200;5.814;2023-05-10T11:24:14;16.20;83.00
59505;DHT22;45321;53.200;5.814;2023-05-10T11:26:40;16.30;82.50
59505;DHT22;45321;53.200;5.814;2023-05-10T11:29:06;16.30;82.70
59505;DHT22;45321;53.200;5.814;2023-05-10T11:31:32;16.30;82.40
59505;DHT22;45321;53.200;5.814;2023-05-10T11:33:59;16.30;81.70
59505;DHT22;45321;53.200;5.814;2023-05-10T11:36:29;16.50;81.60
59505;DHT22;45321;53.200;5.814;2023-05-10T11:38:56;16.50;81.70
59505;DHT22;45321;53.200;5.814;2023-05-10T11:41:23;16.50;81.10
59505;DHT22;45321;53.200;5.814;2023-05-10T11:43:53;16.40;80.60
59505;DHT22;45321;53.200;5.814;2023-05-10T11:46:21;16.30;80.30
59505;DHT22;45321;53.200;5.814;2023-05-10T11:48:50;16.30;80.30
59505;DHT22;45321;53.200;5.814;2023-05-10T11:51:20;16.30;80.40
59505;DHT22;45321;53.200;5.814;2023-05-10T11:53:46;16.40;80.50
59505;DHT22;45321;53.200;5.814;2023-05-10T11:56:12;16.70;81.30
59505;DHT22;45321;53.200;5.814;2023-05-10T11:58:39;16.90;80.60
59505;DHT22;45321;53.200;5.814;2023-05-10T12:01:06;17.00;79.50
59505;DHT22;45321;53.200;5.814;2023-05-10T12:03:33;17.20;79.80
59505;DHT22;45321;53.200;5.814;2023-05-10T12:06:01;17.40;80.00
59505;DHT22;45321;53.200;5.814;2023-05-10T12:08:28;17.70;79.20
59505;DHT22;45321;53.200;5.814;2023-05-10T12:11:04;17.80;78.40
59505;DHT22;45321;53.200;5.814;2023-05-10T12:13:30;18.00;78.50
59505;DHT22;45321;53.200;5.814;2023-05-10T12:15:59;18.10;77.60
59505;DHT22;45321;53.200;5.814;2023-05-10T12:18:39;18.00;77.50
59505;DHT22;45321;53.200;5.814;2023-05-10T12:21:05;18.00;76.50
59505;DHT22;45321;53.200;5.814;2023-05-10T12:23:31;17.80;76.10
59505;DHT22;45321;53.200;5.814;2023-05-10T12:26:02;17.80;76.10
59505;DHT22;45321;53.200;5.814;2023-05-10T12:28:33;17.90;76.40
59505;DHT22;45321;53.200;5.814;2023-05-10T12:31:02;18.20;76.30
59505;DHT22;45321;53.200;5.814;2023-05-10T12:33:39;18.40;75.70
59505;DHT22;45321;53.200;5.814;2023-05-10T12:36:05;18.50;75.40
59505;DHT22;45321;53.200;5.814;2023-05-10T12:38:35;18.60;75.20
59505;DHT22;45321;53.200;5.814;2023-05-10T12:41:05;18.60;74.80
59505;DHT22;45321;53.200;5.814;2023-05-10T12:43:32;18.60;74.60
59505;DHT22;45321;53.200;5.814;2023-05-10T12:45:58;18.50;74.80
59505;DHT22;45321;53.200;5.814;2023-05-10T12:48:29;18.50;73.80
59505;DHT22;45321;53.200;5.814;2023-05-10T12:50:56;18.70;75.80
59505;DHT22;45321;53.200;5.814;2023-05-10T12:53:22;18.90;75.80
59505;DHT22;45321;53.200;5.814;2023-05-10T12:55:48;19.10;74.80
59505;DHT22;45321;53.200;5.814;2023-05-10T12:58:14;19.10;73.60
59505;DHT22;45321;53.200;5.814;2023-05-10T13:00:39;19.00;73.70
59505;DHT22;45321;53.200;5.814;2023-05-10T13:03:05;18.90;73.00
59505;DHT22;45321;53.200;5.814;2023-05-10T13:05:34;18.90;74.00
59505;DHT22;45321;53.200;5.814;2023-05-10T13:08:00;18.90;72.60
59505;DHT22;45321;53.200;5.814;2023-05-10T13:10:26;19.00;73.90
59505;DHT22;45321;53.200;5.814;2023-05-10T13:12:52;19.10;72.60
59505;DHT22;45321;53.200;5.814;2023-05-10T13:15:17;19.20;72.30
59505;DHT22;45321;53.200;5.814;2023-05-10T13:17:46;19.30;72.90
59505;DHT22;45321;53.200;5.814;2023-05-10T13:20:12;19.30;72.10
59505;DHT22;45321;53.200;5.814;2023-05-10T13:22:37;19.30;72.30
59505;DHT22;45321;53.200;5.814;2023-05-10T13:25:03;19.20;72.40
59505;DHT22;45321;53.200;5.814;2023-05-10T13:27:29;19.20;71.40
59505;DHT22;45321;53.200;5.814;2023-05-10T13:29:55;19.00;72.10
59505;DHT22;45321;53.200;5.814;2023-05-10T13:32:21;18.90;72.70
59505;DHT22;45321;53.200;5.814;2023-05-10T13:34:47;18.80;72.20
59505;DHT22;45321;53.200;5.814;2023-05-10T13:37:12;18.70;73.10
59505;DHT22;45321;53.200;5.814;2023-05-10T13:39:38;18.80;73.30
59505;DHT22;45321;53.200;5.814;2023-05-10T13:42:04;18.80;72.40
59505;DHT22;45321;53.200;5.814;2023-05-10T13:44:30;18.90;72.30
59505;DHT22;45321;53.200;5.814;2023-05-10T13:46:56;19.10;70.70
59505;DHT22;45321;53.200;5.814;2023-05-10T13:49:22;19.20;71.50
59505;DHT22;45321;53.200;5.814;2023-05-10T13:51:48;19.20;71.90
59505;DHT22;45321;53.200;5.814;2023-05-10T13:54:14;19.10;72.30
59505;DHT22;45321;53.200;5.814;2023-05-10T13:56:41;19.00;71.50
59505;DHT22;45321;53.200;5.814;2023-05-10T13:59:07;18.90;72.00
59505;DHT22;45321;53.200;5.814;2023-05-10T14:01:33;19.00;72.80
59505;DHT22;45321;53.200;5.814;2023-05-10T14:04:00;19.00;72.60
59505;DHT22;45321;53.200;5.814;2023-05-10T14:06:25;19.00;72.60
59505;DHT22;45321;53.200;5.814;2023-05-10T14:08:52;19.00;72.40
59505;DHT22;45321;53.200;5.814;2023-05-10T14:11:19;19.10;72.70
59505;DHT22;45321;53.200;5.814;2023-05-10T14:13:45;19.20;72.90
59505;DHT22;45321;53.200;5.814;2023-05-10T14:16:11;19.60;71.90
59505;DHT22;45321;53.200;5.814;2023-05-10T14:18:37;19.90;69.60
59505;DHT22;45321;53.200;5.814;2023-05-10T14:21:03;20.70;70.90
59505;DHT22;45321;53.200;5.814;2023-05-10T14:23:29;21.60;68.50
59505;DHT22;45321;53.200;5.814;2023-05-10T14:25:55;22.20;67.20
59505;DHT22;45321;53.200;5.814;2023-05-10T14:28:21;22.80;65.40
59505;DHT22;45321;53.200;5.814;2023-05-10T14:30:49;23.50;63.90
59505;DHT22;45321;53.200;5.814;2023-05-10T14:33:15;23.90;61.10
59505;DHT22;45321;53.200;5.814;2023-05-10T14:35:41;24.20;61.40
59505;DHT22;45321;53.200;5.814;2023-05-10T14:38:07;24.30;59.50
59505;DHT22;45321;53.200;5.814;2023-05-10T14:40:33;24.40;59.60
59505;DHT22;45321;53.200;5.814;2023-05-10T14:42:58;23.80;59.30
59505;DHT22;45321;53.200;5.814;2023-05-10T14:45:24;23.20;60.20
59505;DHT22;45321;53.200;5.814;2023-05-10T14:47:50;22.80;61.50
59505;DHT22;45321;53.200;5.814;2023-05-10T14:50:16;23.40;62.10
59505;DHT22;45321;53.200;5.814;2023-05-10T14:52:43;24.00;61.60
59505;DHT22;45321;53.200;5.814;2023-05-10T14:55:09;23.90;59.10
59505;DHT22;45321;53.200;5.814;2023-05-10T14:57:35;23.50;59.10
59505;DHT22;45321;53.200;5.814;2023-05-10T15:00:01;22.90;59.60
59505;DHT22;45321;53.200;5.814;2023-05-10T15:02:28;22.50;60.50
59505;DHT22;45321;53.200;5.814;2023-05-10T15:04:53;22.00;62.10
59505;DHT22;45321;53.200;5.814;2023-05-10T15:07:19;21.90;63.00
59505;DHT22;45321;53.200;5.814;2023-05-10T15:09:45;22.00;63.10
59505;DHT22;45321;53.200;5.814;2023-05-10T15:12:11;21.90;63.00
59505;DHT22;45321;53.200;5.814;2023-05-10T15:14:37;22.00;61.50
59505;DHT22;45321;53.200;5.814;2023-05-10T15:17:03;21.80;62.60
59505;DHT22;45321;53.200;5.814;2023-05-10T15:19:29;21.70;63.60
59505;DHT22;45321;53.200;5.814;2023-05-10T15:21:55;21.70;62.50
59505;DHT22;45321;53.200;5.814;2023-05-10T15:24:21;21.70;62.70
59505;DHT22;45321;53.200;5.814;2023-05-10T15:26:47;21.80;63.00
59505;DHT22;45321;53.200;5.814;2023-05-10T15:29:13;21.80;62.70
59505;DHT22;45321;53.200;5.814;2023-05-10T15:31:50;22.40;63.10
59505;DHT22;45321;53.200;5.814;2023-05-10T15:34:17;23.20;59.30
59505;DHT22;45321;53.200;5.814;2023-05-10T15:36:43;23.20;57.10
59505;DHT22;45321;53.200;5.814;2023-05-10T15:39:10;22.80;58.70
59505;DHT22;45321;53.200;5.814;2023-05-10T15:41:36;22.70;59.90
59505;DHT22;45321;53.200;5.814;2023-05-10T15:44:02;22.30;59.50
59505;DHT22;45321;53.200;5.814;2023-05-10T15:46:28;22.00;60.60
59505;DHT22;45321;53.200;5.814;2023-05-10T15:48:54;21.80;61.70
59505;DHT22;45321;53.200;5.814;2023-05-10T15:51:20;21.60;60.60
59505;DHT22;45321;53.200;5.814;2023-05-10T15:53:46;21.10;60.50
59505;DHT22;45321;53.200;5.814;2023-05-10T15:56:13;20.70;62.70
59505;DHT22;45321;53.200;5.814;2023-05-10T15:58:40;20.60;62.60
59505;DHT22;45321;53.200;5.814;2023-05-10T16:01:06;20.60;63.30
59505;DHT22;45321;53.200;5.814;2023-05-10T16:03:33;20.60;64.10